createdAt,value
2023-05-10T00:01:08.857Z,72.24
2023-05-10T00:03:35.842Z,72.33
2023-05-10T00:06:02.973Z,72.60
2023-05-10T00:08:29.739Z,72.46
2023-05-10T00:10:56.789Z,72.16
2023-05-10T00:13:23.606Z,72.28
2023-05-10T00:15:50.516Z,72.39
2023-05-10T00:18:17.392Z,72.47
2023-05-10T00:20:44.237Z,72.70
2023-05-10T00:23:11.171Z,72.75
2023-05-10T00:25:37.937Z,72.71
2023-05-10T00:28:04.955Z,72.68
2023-05-10T00:30:32.053Z,72.70
2023-05-10T00:32:58.972Z,72.75
2023-05-10T00:35:27.185Z,72.65
2023-05-10T00:37:54.154Z,72.80
2023-05-10T00:40:21.828Z,73.35
2023-05-10T00:42:51.669Z,73.40
2023-05-10T00:45:18.550Z,73.41
2023-05-10T00:47:45.439Z,73.47
2023-05-10T00:50:12.521Z,73.35
2023-05-10T00:52:39.578Z,73.46
2023-05-10T00:55:07.345Z,73.53
2023-05-10T00:57:34.222Z,73.57
2023-05-10T01:00:01.373Z,73.54
2023-05-10T01:02:28.459Z,73.80
2023-05-10T01:04:57.488Z,73.55
2023-05-10T01:07:24.425Z,73.49
2023-05-10T01:09:51.201Z,73.21
2023-05-10T01:12:18.537Z,74.09
2023-05-10T01:14:45.416Z,74.47
2023-05-10T01:17:12.430Z,74.71
2023-05-10T01:19:39.351Z,74.80
2023-05-10T01:22:06.156Z,74.91
2023-05-10T01:24:33.570Z,74.89
2023-05-10T01:27:00.537Z,74.74
2023-05-10T01:29:46.277Z,74.56
2023-05-10T01:32:13.067Z,74.42
2023-05-10T01:34:53.513Z,74.44
2023-05-10T01:37:26.684Z,74.32
2023-05-10T01:39:56.452Z,74.28
2023-05-10T01:42:28.595Z,74.27
2023-05-10T01:45:01.458Z,74.40
2023-05-10T01:47:32.127Z,74.28
2023-05-10T01:49:59.563Z,75.07
2023-05-10T01:52:39.006Z,75.48
2023-05-10T01:55:06.778Z,75.46
2023-05-10T01:57:36.441Z,75.12
2023-05-10T02:00:04.710Z,74.71
2023-05-10T02:02:43.384Z,74.37
2023-05-10T02:05:11.873Z,73.86
2023-05-10T02:07:38.653Z,73.58
2023-05-10T02:10:05.756Z,73.36
2023-05-10T02:12:32.817Z,73.33
2023-05-10T02:15:00.869Z,73.19
2023-05-10T02:17:27.792Z,72.58
2023-05-10T02:19:55.034Z,72.10
2023-05-10T02:22:21.871Z,71.14
2023-05-10T02:24:48.803Z,70.39
2023-05-10T02:27:15.612Z,69.76
2023-05-10T02:29:42.576Z,69.15
2023-05-10T02:32:09.987Z,68.29
2023-05-10T02:34:37.697Z,67.21
2023-05-10T02:37:04.482Z,66.70
2023-05-10T02:39:33.069Z,66.25
2023-05-10T02:41:59.965Z,65.40
2023-05-10T02:44:27.210Z,64.81
2023-05-10T02:46:57.117Z,64.44
2023-05-10T02:49:23.927Z,64.63
2023-05-10T02:51:52.453Z,64.68
2023-05-10T02:54:24.440Z,64.68
2023-05-10T02:57:09.519Z,64.35
2023-05-10T02:59:36.444Z,64.15
2023-05-10T03:02:03.373Z,64.24
2023-05-10T03:04:30.253Z,64.19
2023-05-10T03:06:57.228Z,63.84
2023-05-10T03:09:24.139Z,63.56
2023-05-10T03:12:02.055Z,63.42
2023-05-10T03:14:49.266Z,63.11
2023-05-10T03:17:17.177Z,62.76
2023-05-10T03:19:52.017Z,62.56
2023-05-10T03:22:21.579Z,62.25
2023-05-10T03:24:48.425Z,62.44
2023-05-10T03:27:15.419Z,62.37
2023-05-10T03:29:42.634Z,62.88
2023-05-10T03:32:09.607Z,63.78
2023-05-10T03:34:37.345Z,64.00
2023-05-10T03:37:04.760Z,63.47
2023-05-10T03:39:31.710Z,63.62
2023-05-10T03:41:59.180Z,63.51
2023-05-10T03:44:26.042Z,63.87
2023-05-10T03:46:53.162Z,63.64
2023-05-10T03:49:20.255Z,63.34
2023-05-10T03:51:47.607Z,63.65
2023-05-10T03:54:14.426Z,63.78
2023-05-10T03:56:41.743Z,63.52
2023-05-10T03:59:09.978Z,63.63
2023-05-10T04:01:36.854Z,63.73
2023-05-10T04:04:03.815Z,63.81
2023-05-10T04:06:32.027Z,63.50
2023-05-10T04:09:01.128Z,63.21
2023-05-10T04:11:27.935Z,62.46
2023-05-10T04:13:54.714Z,62.38
2023-05-10T04:16:21.543Z,62.48
2023-05-10T04:18:49.350Z,62.21
2023-05-10T04:21:16.136Z,61.72
2023-05-10T04:23:42.978Z,61.55
2023-05-10T04:26:09.768Z,61.42
2023-05-10T04:28:36.681Z,61.67
2023-05-10T04:31:04.109Z,61.58
2023-05-10T04:33:31.114Z,61.39
2023-05-10T04:35:57.997Z,60.81
2023-05-10T04:38:24.992Z,60.35
2023-05-10T04:40:51.885Z,60.28
2023-05-10T04:43:18.783Z,60.12
2023-05-10T04:45:45.617Z,60.37
2023-05-10T04:48:12.469Z,60.70
2023-05-10T04:50:40.125Z,61.31
2023-05-10T04:53:07.049Z,61.78
2023-05-10T04:55:34.124Z,61.92
2023-05-10T04:58:01.804Z,62.40
2023-05-10T05:00:29.885Z,62.36
2023-05-10T05:02:56.806Z,62.51
2023-05-10T05:05:23.773Z,61.50
2023-05-10T05:07:51.753Z,60.17
2023-05-10T05:10:18.808Z,59.51
2023-05-10T05:12:46.093Z,59.38
2023-05-10T05:15:12.989Z,58.42
2023-05-10T05:17:40.054Z,58.23
2023-05-10T05:20:07.146Z,57.86
2023-05-10T05:22:33.978Z,57.75
2023-05-10T05:25:01.674Z,57.44
2023-05-10T05:27:29.109Z,57.28
2023-05-10T05:29:56.400Z,56.97
2023-05-10T05:32:23.905Z,56.56
2023-05-10T05:34:50.682Z,55.87
2023-05-10T05:37:18.257Z,54.73
2023-05-10T05:39:45.201Z,54.04
2023-05-10T05:42:12.417Z,53.66
2023-05-10T05:44:39.481Z,53.71
2023-05-10T05:47:06.890Z,53.45
2023-05-10T05:49:33.887Z,53.41
2023-05-10T05:52:03.330Z,52.80
2023-05-10T05:54:30.638Z,51.79
2023-05-10T05:57:01.475Z,51.20
2023-05-10T05:59:28.778Z,50.71
2023-05-10T06:01:55.918Z,51.28
2023-05-10T06:04:22.902Z,50.20
2023-05-10T06:06:52.841Z,48.90
2023-05-10T06:09:19.982Z,48.04
2023-05-10T06:11:47.524Z,47.79
2023-05-10T06:14:14.336Z,47.33
2023-05-10T06:16:42.453Z,46.46
2023-05-10T06:19:09.645Z,46.23
2023-05-10T06:21:39.423Z,45.69
2023-05-10T06:24:07.770Z,44.53
2023-05-10T06:26:34.753Z,43.88
2023-05-10T06:29:02.440Z,43.47
2023-05-10T06:31:32.552Z,42.75
2023-05-10T06:33:59.431Z,42.85
2023-05-10T06:36:27.537Z,42.99
2023-05-10T06:38:57.191Z,43.06
2023-05-10T06:41:25.028Z,42.34
2023-05-10T06:43:59.703Z,41.86
2023-05-10T06:46:26.954Z,41.46
2023-05-10T06:48:54.027Z,41.69
2023-05-10T06:51:22.407Z,41.50
2023-05-10T06:53:49.379Z,41.46
2023-05-10T06:56:16.480Z,42.36
2023-05-10T06:58:43.689Z,43.23
2023-05-10T07:01:10.900Z,44.50
2023-05-10T07:03:40.954Z,45.28
2023-05-10T07:06:13.341Z,44.88
2023-05-10T07:08:45.692Z,44.35
2023-05-10T07:11:12.752Z,44.05
2023-05-10T07:13:42.506Z,44.00
2023-05-10T07:16:12.346Z,43.95
2023-05-10T07:18:39.483Z,44.18
2023-05-10T07:21:07.227Z,44.78
2023-05-10T07:23:34.395Z,44.96
2023-05-10T07:26:01.306Z,44.36
2023-05-10T07:28:28.220Z,44.23
2023-05-10T07:30:55.352Z,44.12
2023-05-10T07:33:25.771Z,44.48
2023-05-10T07:35:52.968Z,45.02
2023-05-10T07:38:20.015Z,45.80
2023-05-10T07:40:46.975Z,46.70
2023-05-10T07:43:14.282Z,48.11
2023-05-10T07:45:41.189Z,49.54
2023-05-10T07:48:08.200Z,51.06
2023-05-10T07:50:35.353Z,51.31
2023-05-10T07:53:02.462Z,50.46
2023-05-10T07:55:29.314Z,50.41
2023-05-10T07:57:56.608Z,50.62
2023-05-10T08:00:23.453Z,50.76
2023-05-10T08:02:50.632Z,50.99
2023-05-10T08:05:17.956Z,51.68
2023-05-10T08:07:45.155Z,52.11
2023-05-10T08:10:14.933Z,52.07
2023-05-10T08:12:41.835Z,52.61
2023-05-10T08:15:09.324Z,52.56
2023-05-10T08:17:36.265Z,52.93
2023-05-10T08:20:03.352Z,53.12
2023-05-10T08:22:30.257Z,54.01
2023-05-10T08:24:57.148Z,54.29
2023-05-10T08:27:24.318Z,55.35
2023-05-10T08:29:51.191Z,53.34
2023-05-10T08:32:18.617Z,50.01
2023-05-10T08:34:45.979Z,47.09
2023-05-10T08:37:15.767Z,46.56
2023-05-10T08:39:42.793Z,45.98
2023-05-10T08:42:09.762Z,44.34
2023-05-10T08:44:37.607Z,42.82
2023-05-10T08:47:05.850Z,41.78
2023-05-10T08:49:39.408Z,40.82
2023-05-10T08:52:08.575Z,38.66
2023-05-10T08:54:40.427Z,38.17
2023-05-10T08:57:07.334Z,37.66
2023-05-10T08:59:34.366Z,36.68
2023-05-10T09:02:01.523Z,36.65
2023-05-10T09:05:35.043Z,38.52
2023-05-10T09:08:01.909Z,42.34
2023-05-10T09:10:29.450Z,44.47
2023-05-10T09:12:59.190Z,44.75
2023-05-10T09:15:26.629Z,43.09
2023-05-10T09:17:53.668Z,42.47
2023-05-10T09:20:20.771Z,42.98
2023-05-10T09:22:47.774Z,43.53
2023-05-10T09:25:15.507Z,43.58
2023-05-10T09:27:43.531Z,43.30
2023-05-10T09:30:10.929Z,44.01
2023-05-10T09:32:38.010Z,44.86
2023-05-10T09:35:15.567Z,45.56
2023-05-10T09:37:43.744Z,46.19
2023-05-10T09:40:14.703Z,46.68
2023-05-10T09:42:52.008Z,46.69
2023-05-10T09:45:19.194Z,47.12
2023-05-10T09:47:47.109Z,47.55
2023-05-10T09:50:14.084Z,46.86
2023-05-10T09:52:54.571Z,47.17
2023-05-10T09:55:24.889Z,48.70
2023-05-10T09:58:01.234Z,49.88
2023-05-10T10:00:29.735Z,51.23
2023-05-10T10:02:58.269Z,52.15
2023-05-10T10:05:30.870Z,50.56
2023-05-10T10:08:01.132Z,50.30
2023-05-10T10:10:28.144Z,49.29
2023-05-10T10:12:55.286Z,48.78
2023-05-10T10:15:22.981Z,48.06
2023-05-10T10:17:50.334Z,46.92
2023-05-10T10:20:17.645Z,46.65
2023-05-10T10:22:44.855Z,46.73
2023-05-10T10:25:15.410Z,46.81
2023-05-10T10:27:48.678Z,46.46
2023-05-10T10:30:25.267Z,46.63
2023-05-10T10:32:52.166Z,46.19
2023-05-10T10:35:19.096Z,45.72
2023-05-10T10:37:49.409Z,45.56
2023-05-10T10:40:26.314Z,45.62
2023-05-10T10:42:53.223Z,45.30
2023-05-10T10:45:20.395Z,44.72
2023-05-10T10:47:47.391Z,44.39
2023-05-10T10:50:14.507Z,44.44
2023-05-10T10:52:41.920Z,44.22
2023-05-10T10:55:10.416Z,43.99
2023-05-10T10:57:43.801Z,43.62
2023-05-10T11:00:21.477Z,43.54
2023-05-10T11:02:57.304Z,43.89
2023-05-10T11:05:30.376Z,44.82
2023-05-10T11:07:57.904Z,44.70
2023-05-10T11:10:28.400Z,44.48
2023-05-10T11:13:02.280Z,45.33
2023-05-10T11:15:32.794Z,45.75
2023-05-10T11:18:22.050Z,45.78
2023-05-10T11:20:53.154Z,45.67
2023-05-10T11:23:21.094Z,45.58
2023-05-10T11:25:48.762Z,45.25
2023-05-10T11:28:15.685Z,44.87
2023-05-10T11:30:43.123Z,43.98
2023-05-10T11:33:11.315Z,43.11
2023-05-10T11:35:41.066Z,42.32
2023-05-10T11:38:10.478Z,41.62
2023-05-10T11:40:40.438Z,41.45
2023-05-10T11:43:07.505Z,41.56
2023-05-10T11:45:34.637Z,41.38
2023-05-10T11:48:25.365Z,41.68
2023-05-10T11:51:00.149Z,41.05
2023-05-10T11:53:28.113Z,41.39
2023-05-10T11:56:15.758Z,41.59
2023-05-10T11:58:42.734Z,41.76
2023-05-10T12:01:10.454Z,41.90
2023-05-10T12:03:38.055Z,41.64
2023-05-10T12:06:05.033Z,41.81
2023-05-10T12:08:34.796Z,42.17
2023-05-10T12:11:11.146Z,42.34
2023-05-10T12:13:41.628Z,41.95
2023-05-10T12:16:15.869Z,41.65
2023-05-10T12:18:43.897Z,41.51
2023-05-10T12:21:13.112Z,41.55
2023-05-10T12:23:40.369Z,41.70
2023-05-10T12:26:07.352Z,41.72
2023-05-10T12:28:34.331Z,41.60
2023-05-10T12:31:01.413Z,41.75
2023-05-10T12:33:28.541Z,41.58
2023-05-10T12:35:55.728Z,41.68
2023-05-10T12:38:33.134Z,41.66
2023-05-10T12:41:04.103Z,42.16
2023-05-10T12:43:31.341Z,42.74
2023-05-10T12:45:58.559Z,43.12
2023-05-10T12:48:25.674Z,43.24
2023-05-10T12:50:52.452Z,42.94
2023-05-10T12:53:19.471Z,42.85
2023-05-10T12:55:49.158Z,42.92
2023-05-10T12:58:31.584Z,43.57
2023-05-10T13:01:02.727Z,43.55
2023-05-10T13:03:29.720Z,43.55
2023-05-10T13:05:56.576Z,43.17
2023-05-10T13:08:23.572Z,42.19
2023-05-10T13:10:50.572Z,41.85
2023-05-10T13:13:17.643Z,41.55
2023-05-10T13:15:44.744Z,41.37
2023-05-10T13:18:11.829Z,41.73
2023-05-10T13:20:39.152Z,41.20
2023-05-10T13:23:06.685Z,41.33
2023-05-10T13:25:35.624Z,41.34
2023-05-10T13:28:03.007Z,40.65
2023-05-10T13:30:30.191Z,39.95
2023-05-10T13:32:57.270Z,39.65
2023-05-10T13:35:24.345Z,39.62
2023-05-10T13:37:51.187Z,41.27
2023-05-10T13:40:18.433Z,42.41
2023-05-10T13:42:45.718Z,43.09
2023-05-10T13:45:13.398Z,44.33
2023-05-10T13:47:40.400Z,45.66
2023-05-10T13:50:10.308Z,47.19
2023-05-10T13:52:37.389Z,49.07
2023-05-10T13:55:04.738Z,50.09
2023-05-10T13:57:31.765Z,50.38
2023-05-10T14:00:01.732Z,50.88
2023-05-10T14:02:35.876Z,51.36
2023-05-10T14:05:02.908Z,51.61
2023-05-10T14:07:30.777Z,51.66
2023-05-10T14:10:01.033Z,50.78
2023-05-10T14:12:28.464Z,49.90
2023-05-10T14:14:55.565Z,50.08
2023-05-10T14:17:23.565Z,51.06
2023-05-10T14:19:50.874Z,51.63
2023-05-10T14:22:17.823Z,51.44
2023-05-10T14:24:48.186Z,51.77
2023-05-10T14:27:19.269Z,51.65
2023-05-10T14:29:46.097Z,51.98
2023-05-10T14:32:13.168Z,52.46
2023-05-10T14:34:40.259Z,52.75
2023-05-10T14:37:07.463Z,53.07
2023-05-10T14:39:34.934Z,53.38
2023-05-10T14:42:02.609Z,53.52
2023-05-10T14:44:30.126Z,53.43
2023-05-10T14:46:57.544Z,53.26
2023-05-10T14:49:26.788Z,53.21
2023-05-10T14:51:56.895Z,53.05
2023-05-10T14:54:23.726Z,52.72
2023-05-10T14:56:51.113Z,52.59
2023-05-10T14:59:18.896Z,52.75
2023-05-10T15:01:46.419Z,52.54
2023-05-10T15:04:16.579Z,53.01
2023-05-10T15:06:44.829Z,53.22
2023-05-10T15:09:11.937Z,52.83
2023-05-10T15:11:38.986Z,52.69
2023-05-10T15:14:05.965Z,52.46
2023-05-10T15:16:35.627Z,52.15
2023-05-10T15:19:03.267Z,52.06
2023-05-10T15:21:31.903Z,51.93
2023-05-10T15:23:59.155Z,51.67
2023-05-10T15:26:27.498Z,51.49
2023-05-10T15:28:54.283Z,51.42
2023-05-10T15:31:21.149Z,51.82
2023-05-10T15:33:48.057Z,52.04
2023-05-10T15:36:14.852Z,52.03
2023-05-10T15:38:41.653Z,51.90
2023-05-10T15:41:08.629Z,51.80
2023-05-10T15:43:37.271Z,51.50
2023-05-10T15:46:04.353Z,51.43
2023-05-10T15:48:32.471Z,51.11
2023-05-10T15:51:00.882Z,50.67
2023-05-10T15:53:28.157Z,50.09
2023-05-10T15:55:55.269Z,49.70
2023-05-10T15:58:23.506Z,49.73
2023-05-10T16:00:50.508Z,49.55
2023-05-10T16:03:17.320Z,49.59
2023-05-10T16:05:44.152Z,49.52
2023-05-10T16:08:11.071Z,49.61
2023-05-10T16:10:38.203Z,49.78
2023-05-10T16:13:05.121Z,50.01
2023-05-10T16:15:32.039Z,50.24
2023-05-10T16:17:59.157Z,50.92
2023-05-10T16:20:26.664Z,50.69
2023-05-10T16:22:53.480Z,50.56
2023-05-10T16:25:20.570Z,50.26
2023-05-10T16:27:47.488Z,50.06
2023-05-10T16:30:14.516Z,49.73
2023-05-10T16:32:41.465Z,49.61
2023-05-10T16:35:08.689Z,49.52
2023-05-10T16:37:36.050Z,49.41
2023-05-10T16:40:03.225Z,49.74
2023-05-10T16:42:30.639Z,50.02
2023-05-10T16:44:57.635Z,50.42
2023-05-10T16:47:26.977Z,50.90
2023-05-10T16:49:53.953Z,51.16
2023-05-10T16:52:20.802Z,51.08
2023-05-10T16:54:47.731Z,50.92
2023-05-10T16:57:14.580Z,50.86
2023-05-10T16:59:41.530Z,50.99
2023-05-10T17:02:08.597Z,51.05
2023-05-10T17:04:35.639Z,51.21
2023-05-10T17:07:02.399Z,51.44
2023-05-10T17:09:29.192Z,51.55
2023-05-10T17:11:56.051Z,51.42
2023-05-10T17:14:23.267Z,51.78
2023-05-10T17:16:52.922Z,51.81
2023-05-10T17:19:20.032Z,52.24
2023-05-10T17:21:47.060Z,52.73
2023-05-10T17:24:14.121Z,53.02
2023-05-10T17:26:41.316Z,53.13
2023-05-10T17:29:08.423Z,53.28
2023-05-10T17:31:35.358Z,53.28
2023-05-10T17:34:04.714Z,53.26
2023-05-10T17:36:32.744Z,53.36
2023-05-10T17:38:59.697Z,53.54
2023-05-10T17:41:26.544Z,53.59
2023-05-10T17:43:54.003Z,53.39
2023-05-10T17:46:20.896Z,53.23
2023-05-10T17:48:48.044Z,53.33
2023-05-10T17:51:15.515Z,53.37
2023-05-10T17:53:42.475Z,53.66
2023-05-10T17:56:09.777Z,54.10
2023-05-10T17:58:38.506Z,54.57
2023-05-10T18:01:05.860Z,54.85
2023-05-10T18:03:33.997Z,55.33
2023-05-10T18:06:00.870Z,55.72
2023-05-10T18:08:29.030Z,55.83
2023-05-10T18:10:56.214Z,56.04
2023-05-10T18:13:23.104Z,56.34
2023-05-10T18:15:50.282Z,56.79
2023-05-10T18:18:17.735Z,57.22
2023-05-10T18:20:46.367Z,57.62
2023-05-10T18:23:15.342Z,57.66
2023-05-10T18:25:42.616Z,58.06
2023-05-10T18:28:09.566Z,58.30
2023-05-10T18:30:36.414Z,58.48
2023-05-10T18:33:03.694Z,58.63
2023-05-10T18:35:30.549Z,59.04
2023-05-10T18:37:57.390Z,59.31
2023-05-10T18:40:24.884Z,59.28
2023-05-10T18:42:52.343Z,59.60
2023-05-10T18:45:19.523Z,59.91
2023-05-10T18:47:46.627Z,60.07
2023-05-10T18:50:13.501Z,60.38
2023-05-10T18:52:40.450Z,60.56
2023-05-10T18:55:08.583Z,60.54
2023-05-10T18:57:41.802Z,60.65
2023-05-10T19:00:10.564Z,60.72
2023-05-10T19:02:37.802Z,60.64
2023-05-10T19:05:04.781Z,60.73
2023-05-10T19:07:31.791Z,60.81
2023-05-10T19:09:58.689Z,60.64
2023-05-10T19:12:25.548Z,60.44
2023-05-10T19:14:52.463Z,60.47
2023-05-10T19:17:19.232Z,60.41
2023-05-10T19:19:46.168Z,60.63
2023-05-10T19:22:13.460Z,61.50
2023-05-10T19:24:40.363Z,61.92
2023-05-10T19:27:07.383Z,62.68
2023-05-10T19:29:34.288Z,63.09
2023-05-10T19:32:01.116Z,63.60
2023-05-10T19:34:30.062Z,63.99
2023-05-10T19:36:56.919Z,64.13
2023-05-10T19:39:23.690Z,64.17
2023-05-10T19:41:51.272Z,64.22
2023-05-10T19:44:18.275Z,64.42
2023-05-10T19:46:45.219Z,64.70
2023-05-10T19:49:12.033Z,65.13
2023-05-10T19:51:38.867Z,65.19
2023-05-10T19:54:05.735Z,65.39
2023-05-10T19:56:32.469Z,65.65
2023-05-10T19:58:59.717Z,66.01
2023-05-10T20:01:27.019Z,66.20
2023-05-10T20:03:53.972Z,66.21
2023-05-10T20:06:20.920Z,66.08
2023-05-10T20:08:47.675Z,66.26
2023-05-10T20:11:14.462Z,66.22
2023-05-10T20:13:41.259Z,66.06
2023-05-10T20:16:08.150Z,65.82
2023-05-10T20:18:35.073Z,65.86
2023-05-10T20:21:01.936Z,65.47
2023-05-10T20:23:28.948Z,65.27
2023-05-10T20:25:55.901Z,65.37
2023-05-10T20:28:23.404Z,65.40
2023-05-10T20:30:53.832Z,65.75
2023-05-10T20:33:21.299Z,66.00
2023-05-10T20:35:48.168Z,66.00
2023-05-10T20:38:14.970Z,65.90
2023-05-10T20:40:41.956Z,66.09
2023-05-10T20:43:08.793Z,66.38
2023-05-10T20:45:37.445Z,66.41
2023-05-10T20:48:04.793Z,66.45
2023-05-10T20:50:31.670Z,67.27
2023-05-10T20:52:58.459Z,67.66
2023-05-10T20:55:25.293Z,67.89
2023-05-10T20:57:53.033Z,68.24
2023-05-10T21:00:20.171Z,68.49
2023-05-10T21:02:47.334Z,68.42
2023-05-10T21:05:14.493Z,68.33
2023-05-10T21:07:41.545Z,68.29
2023-05-10T21:10:08.807Z,68.24
2023-05-10T21:12:35.879Z,68.29
2023-05-10T21:15:03.305Z,68.48
2023-05-10T21:17:30.173Z,68.71
2023-05-10T21:19:57.005Z,68.67
2023-05-10T21:22:23.826Z,68.32
2023-05-10T21:24:50.642Z,68.42
2023-05-10T21:27:17.470Z,68.47
2023-05-10T21:29:44.367Z,68.57
2023-05-10T21:32:11.274Z,68.70
2023-05-10T21:34:38.361Z,69.56
2023-05-10T21:37:05.265Z,69.44
2023-05-10T21:39:32.133Z,69.36
2023-05-10T21:42:00.693Z,69.53
2023-05-10T21:44:27.519Z,69.64
2023-05-10T21:46:54.667Z,69.29
2023-05-10T21:49:21.617Z,68.87
2023-05-10T21:51:48.754Z,68.97
2023-05-10T21:54:15.569Z,69.15
2023-05-10T21:56:42.465Z,69.70
2023-05-10T21:59:09.301Z,69.83
2023-05-10T22:01:36.205Z,70.29
2023-05-10T22:04:06.343Z,70.83
2023-05-10T22:06:33.175Z,71.16
2023-05-10T22:09:00.051Z,70.86
2023-05-10T22:11:27.634Z,71.09
2023-05-10T22:13:54.416Z,71.32
2023-05-10T22:16:21.387Z,71.35
2023-05-10T22:18:48.451Z,71.32
2023-05-10T22:21:15.354Z,71.65
2023-05-10T22:23:42.187Z,71.99
2023-05-10T22:26:09.020Z,71.63
2023-05-10T22:28:35.889Z,71.39
2023-05-10T22:31:02.808Z,71.14
2023-05-10T22:33:29.773Z,71.20
2023-05-10T22:35:56.501Z,71.11
2023-05-10T22:38:23.290Z,70.95
2023-05-10T22:40:50.444Z,70.85
2023-05-10T22:43:18.138Z,71.07
2023-05-10T22:45:45.004Z,71.03
2023-05-10T22:48:11.978Z,71.45
2023-05-10T22:50:38.842Z,71.98
2023-05-10T22:53:06.706Z,72.31
2023-05-10T22:55:33.561Z,72.21
2023-05-10T22:58:01.231Z,72.12
2023-05-10T23:00:28.017Z,72.20
2023-05-10T23:02:54.957Z,71.80
2023-05-10T23:05:22.519Z,71.73
2023-05-10T23:07:53.269Z,71.55
2023-05-10T23:10:20.331Z,71.78
2023-05-10T23:12:47.282Z,72.12
2023-05-10T23:15:14.063Z,72.04
2023-05-10T23:17:41.177Z,72.14
2023-05-10T23:20:08.855Z,72.26
2023-05-10T23:22:35.749Z,72.30
2023-05-10T23:25:02.565Z,71.98
2023-05-10T23:27:30.222Z,72.00
2023-05-10T23:29:57.494Z,71.86
2023-05-10T23:32:24.494Z,71.73
2023-05-10T23:34:51.305Z,71.51
2023-05-10T23:37:18.224Z,71.95
2023-05-10T23:39:45.118Z,72.19
2023-05-10T23:42:12.021Z,72.66
2023-05-10T23:44:38.850Z,72.57
2023-05-10T23:47:06.245Z,72.55
2023-05-10T23:49:33.163Z,72.27
2023-05-10T23:51:59.985Z,72.22
2023-05-10T23:54:26.825Z,72.32
2023-05-10T23:56:53.570Z,72.25
2023-05-10T23:59:20.366Z,72.10
